Time;durP1;ratioP1;P1;durP2;ratioP2;P2;SDS_P1;SDS_P2;PMS_P1;PMS_P2;Temp;Humidity;BMP_temperature;BMP_pressure;BME280_temperature;BME280_humidity;BME280_pressure;Samples;Min_cycle;Max_cycle;Signal;HPM_P1;HPM_P2
2023/04/10 00:00:38;;;;;;;10.83;8.03;;;;;;;;;;6292443;28;20198;-63
2023/04/10 00:03:40;;;;;;;10.50;8.57;;;;;;;;;;6286671;28;20194;-63
2023/04/10 00:06:41;;;;;;;9.83;7.83;;;;;;;;;;6281211;28;20201;-63
2023/04/10 00:09:42;;;;;;;10.83;8.67;;;;;;;;;;6256922;28;20204;-63
2023/04/10 00:12:43;;;;;;;10.27;9.17;;;;;;;;;;6254740;28;20201;-63
2023/04/10 00:15:44;;;;;;;12.90;11.43;;;;;;;;;;6257489;28;20194;-63
2023/04/10 00:18:46;;;;;;;12.80;10.77;;;;;;;;;;6290458;28;20366;-63
2023/04/10 00:21:47;;;;;;;11.00;8.53;;;;;;;;;;6257464;28;20201;-63
2023/04/10 00:24:48;;;;;;;12.07;8.87;;;;;;;;;;6246505;28;20223;-63
2023/04/10 00:27:49;;;;;;;13.53;10.97;;;;;;;;;;6248969;28;20186;-63
2023/04/10 00:30:50;;;;;;;11.10;9.47;;;;;;;;;;6273942;28;20197;-63
2023/04/10 00:33:51;;;;;;;12.40;11.10;;;;;;;;;;6287050;28;20229;-63
2023/04/10 00:36:52;;;;;;;12.37;10.27;;;;;;;;;;6268919;28;20198;-63
2023/04/10 00:39:53;;;;;;;16.70;10.33;;;;;;;;;;6290009;28;20190;-63
2023/04/10 00:42:54;;;;;;;15.20;11.90;;;;;;;;;;6254040;28;20185;-63
2023/04/10 00:45:55;;;;;;;16.17;11.10;;;;;;;;;;6256920;28;20278;-63
2023/04/10 00:48:57;;;;;;;14.13;10.00;;;;;;;;;;6289885;28;20194;-63
2023/04/10 00:51:58;;;;;;;11.23;9.10;;;;;;;;;;6288469;28;20186;-63
2023/04/10 00:54:59;;;;;;;8.83;7.93;;;;;;;;;;6289870;28;20206;-63
2023/04/10 00:58:00;;;;;;;9.70;7.63;;;;;;;;;;6267735;28;20198;-63
2023/04/10 01:01:02;;;;;;;12.30;8.63;;;;;;;;;;6255236;28;20269;-63
2023/04/10 01:04:03;;;;;;;9.77;8.20;;;;;;;;;;6289540;28;20233;-63
2023/04/10 01:07:17;;;;;;;12.77;8.93;;;;;;;;;;6287563;28;20193;-63
2023/04/10 01:10:31;;;;;;;8.30;7.40;;;;;;;;;;6289898;28;20194;-63
2023/04/10 01:13:35;;;;;;;10.73;8.67;;;;;;;;;;6265632;28;20281;-63
2023/04/10 01:16:42;;;;;;;9.67;7.90;;;;;;;;;;6287620;28;20198;-63
2023/04/10 01:20:04;;;;;;;11.30;9.17;;;;;;;;;;6286649;28;20214;-63
2023/04/10 01:23:12;;;;;;;12.37;9.90;;;;;;;;;;6272847;28;20281;-63
2023/04/10 01:26:18;;;;;;;10.90;9.13;;;;;;;;;;6290113;28;20313;-63
2023/04/10 01:29:20;;;;;;;13.00;8.93;;;;;;;;;;6288610;28;20182;-63
2023/04/10 01:32:21;;;;;;;11.17;9.33;;;;;;;;;;6289632;28;20190;-63
2023/04/10 01:35:24;;;;;;;12.10;9.23;;;;;;;;;;6266359;28;20279;-63
2023/04/10 01:38:28;;;;;;;12.97;9.30;;;;;;;;;;6271797;28;20212;-63
2023/04/10 01:41:31;;;;;;;11.47;8.77;;;;;;;;;;6251751;28;20209;-63
2023/04/10 01:44:34;;;;;;;10.20;8.20;;;;;;;;;;6288713;28;20215;-63
2023/04/10 01:47:36;;;;;;;10.40;8.87;;;;;;;;;;6272126;28;20186;-63
2023/04/10 01:50:37;;;;;;;11.17;8.27;;;;;;;;;;6280296;28;20189;-63
2023/04/10 01:53:40;;;;;;;11.97;8.60;;;;;;;;;;6279246;28;20257;-63
2023/04/10 01:56:41;;;;;;;10.00;7.97;;;;;;;;;;6289351;28;20272;-63
2023/04/10 01:59:43;;;;;;;8.93;7.63;;;;;;;;;;6255867;28;20194;-63
2023/04/10 02:02:44;;;;;;;11.07;7.57;;;;;;;;;;6272268;28;20705;-63
2023/04/10 02:05:54;;;;;;;11.10;8.77;;;;;;;;;;6280443;28;20266;-63
2023/04/10 02:08:58;;;;;;;11.93;9.47;;;;;;;;;;6289142;28;20303;-63
2023/04/10 02:12:04;;;;;;;10.23;8.17;;;;;;;;;;6272658;28;20212;-63
2023/04/10 02:15:07;;;;;;;10.60;8.40;;;;;;;;;;6267735;28;20285;-63
2023/04/10 02:18:09;;;;;;;10.73;8.33;;;;;;;;;;6283817;28;20201;-63
2023/04/10 02:21:11;;;;;;;9.17;7.47;;;;;;;;;;6283167;28;20194;-63
2023/04/10 02:24:12;;;;;;;8.90;7.33;;;;;;;;;;6286008;28;20214;-63
2023/04/10 02:27:13;;;;;;;12.47;8.40;;;;;;;;;;6260411;28;20190;-63
2023/04/10 02:30:14;;;;;;;12.03;7.93;;;;;;;;;;6275185;28;20239;-64
2023/04/10 02:33:15;;;;;;;10.43;8.20;;;;;;;;;;6278418;28;20188;-63
2023/04/10 02:36:16;;;;;;;11.77;8.63;;;;;;;;;;6293147;28;20241;-63
2023/04/10 02:39:17;;;;;;;12.47;8.60;;;;;;;;;;6286381;28;20193;-63
2023/04/10 02:42:18;;;;;;;10.93;7.90;;;;;;;;;;6254945;28;20224;-63
2023/04/10 02:45:19;;;;;;;10.53;8.30;;;;;;;;;;6260145;28;20213;-63
2023/04/10 02:48:21;;;;;;;11.43;8.30;;;;;;;;;;6253156;28;20192;-63
2023/04/10 02:51:22;;;;;;;10.27;7.50;;;;;;;;;;6280426;28;20186;-63
2023/04/10 02:54:23;;;;;;;10.67;8.33;;;;;;;;;;6256864;28;20206;-63
2023/04/10 02:57:25;;;;;;;9.77;7.90;;;;;;;;;;6259704;28;20182;-63
2023/04/10 03:00:26;;;;;;;12.17;8.30;;;;;;;;;;6254311;28;20201;-63
2023/04/10 03:03:27;;;;;;;11.90;7.83;;;;;;;;;;6251474;28;20649;-63
2023/04/10 03:06:28;;;;;;;9.23;7.40;;;;;;;;;;6262390;28;20271;-63
2023/04/10 03:09:29;;;;;;;10.57;7.80;;;;;;;;;;6253323;28;20189;-63
2023/04/10 03:12:30;;;;;;;10.97;8.77;;;;;;;;;;6258875;28;20234;-63
2023/04/10 03:15:32;;;;;;;10.37;8.37;;;;;;;;;;6242755;28;20256;-63
2023/04/10 03:18:34;;;;;;;12.20;9.67;;;;;;;;;;6258792;28;20222;-63
2023/04/10 03:21:35;;;;;;;12.63;9.63;;;;;;;;;;6259149;28;20281;-63
2023/04/10 03:24:40;;;;;;;9.47;7.90;;;;;;;;;;6255190;28;20210;-63
2023/04/10 03:27:41;;;;;;;10.23;7.43;;;;;;;;;;6291379;28;20227;-63
2023/04/10 03:30:42;;;;;;;13.33;8.93;;;;;;;;;;6294363;28;20194;-63
2023/04/10 03:33:43;;;;;;;12.33;8.87;;;;;;;;;;6258075;28;20197;-63
2023/04/10 03:36:45;;;;;;;11.53;8.13;;;;;;;;;;6261804;28;20255;-63
2023/04/10 03:39:46;;;;;;;10.07;8.07;;;;;;;;;;6258526;28;20198;-63
2023/04/10 03:42:47;;;;;;;12.03;8.20;;;;;;;;;;6257277;28;20210;-63
2023/04/10 03:45:48;;;;;;;10.27;8.17;;;;;;;;;;6259688;28;20222;-63
2023/04/10 03:48:51;;;;;;;11.23;8.00;;;;;;;;;;6291157;28;20185;-63
2023/04/10 03:51:52;;;;;;;11.23;8.47;;;;;;;;;;6291304;28;20331;-63
2023/04/10 03:54:54;;;;;;;11.07;8.53;;;;;;;;;;6253312;28;20201;-63
2023/04/10 03:57:55;;;;;;;11.30;7.97;;;;;;;;;;6268496;28;20194;-63
2023/04/10 04:00:56;;;;;;;13.27;9.47;;;;;;;;;;6272162;28;20336;-62
2023/04/10 04:03:57;;;;;;;11.07;8.83;;;;;;;;;;6257960;28;20199;-63
2023/04/10 04:06:58;;;;;;;12.43;9.07;;;;;;;;;;6258713;28;20214;-63
2023/04/10 04:09:59;;;;;;;11.53;8.63;;;;;;;;;;6254623;28;20195;-62
2023/04/10 04:13:00;;;;;;;11.40;7.57;;;;;;;;;;6257814;28;20189;-63
2023/04/10 04:16:01;;;;;;;9.27;7.33;;;;;;;;;;6259284;28;20201;-63
2023/04/10 04:19:02;;;;;;;11.63;7.93;;;;;;;;;;6274493;28;20188;-63
2023/04/10 04:22:04;;;;;;;11.50;8.80;;;;;;;;;;6257437;28;20201;-63
2023/04/10 04:25:09;;;;;;;12.77;9.10;;;;;;;;;;6246978;28;20209;-63
2023/04/10 04:28:12;;;;;;;10.37;7.57;;;;;;;;;;6258937;28;20197;-63
2023/04/10 04:31:13;;;;;;;10.43;7.67;;;;;;;;;;6262204;28;20190;-63
2023/04/10 04:34:15;;;;;;;12.90;8.93;;;;;;;;;;6290585;28;20248;-63
2023/04/10 04:37:16;;;;;;;10.90;8.67;;;;;;;;;;6260010;28;20190;-63
2023/04/10 04:40:17;;;;;;;12.40;8.80;;;;;;;;;;6266547;28;20201;-63
2023/04/10 04:43:18;;;;;;;11.93;8.43;;;;;;;;;;6273468;28;20201;-63
2023/04/10 04:46:19;;;;;;;12.70;9.00;;;;;;;;;;6247041;28;20271;-63
2023/04/10 04:49:20;;;;;;;13.50;8.87;;;;;;;;;;6256401;28;20189;-63
2023/04/10 04:52:22;;;;;;;13.23;9.80;;;;;;;;;;6289122;28;20197;-62
2023/04/10 04:55:23;;;;;;;10.83;8.60;;;;;;;;;;6246072;28;20206;-62
2023/04/10 04:58:24;;;;;;;13.57;9.90;;;;;;;;;;6261435;28;20194;-62
2023/04/10 05:01:25;;;;;;;14.23;9.70;;;;;;;;;;6288927;28;20281;-63
2023/04/10 05:04:26;;;;;;;12.57;9.07;;;;;;;;;;6269501;28;20245;-63
2023/04/10 05:07:28;;;;;;;12.40;9.30;;;;;;;;;;6246166;28;20196;-63
2023/04/10 05:10:29;;;;;;;12.57;9.53;;;;;;;;;;6255540;28;20209;-63
2023/04/10 05:13:30;;;;;;;14.53;9.43;;;;;;;;;;6271388;28;20195;-63
2023/04/10 05:16:31;;;;;;;14.00;10.10;;;;;;;;;;6251209;28;20193;-63
2023/04/10 05:19:32;;;;;;;15.70;10.53;;;;;;;;;;6256499;28;20196;-63
2023/04/10 05:22:34;;;;;;;13.57;9.33;;;;;;;;;;6245640;28;20201;-63
2023/04/10 05:25:35;;;;;;;14.63;9.90;;;;;;;;;;6251146;28;20256;-63
2023/04/10 05:28:36;;;;;;;15.10;10.17;;;;;;;;;;6260127;28;20190;-63
2023/04/10 05:31:37;;;;;;;13.43;9.60;;;;;;;;;;6246961;28;20206;-63
2023/04/10 05:34:38;;;;;;;13.97;10.20;;;;;;;;;;6285319;28;20245;-63
2023/04/10 05:37:39;;;;;;;15.73;10.43;;;;;;;;;;6249265;28;20265;-62
2023/04/10 05:40:40;;;;;;;16.10;10.67;;;;;;;;;;6256434;28;20227;-63
2023/04/10 05:43:41;;;;;;;15.80;11.03;;;;;;;;;;6272674;28;20217;-62
2023/04/10 05:46:42;;;;;;;18.67;12.03;;;;;;;;;;6289401;28;20254;-63
2023/04/10 05:49:43;;;;;;;14.40;10.67;;;;;;;;;;6257532;28;20198;-63
2023/04/10 05:52:45;;;;;;;16.83;11.50;;;;;;;;;;6260602;28;20255;-63
2023/04/10 05:55:55;;;;;;;16.90;11.50;;;;;;;;;;6254971;28;20204;-62
2023/04/10 05:58:56;;;;;;;15.80;11.60;;;;;;;;;;6261417;28;20186;-63
2023/04/10 06:01:57;;;;;;;16.23;11.77;;;;;;;;;;6258822;28;20197;-63
2023/04/10 06:04:58;;;;;;;14.63;10.97;;;;;;;;;;6266038;28;20210;-63
2023/04/10 06:07:59;;;;;;;15.67;10.73;;;;;;;;;;6254944;28;20193;-63
2023/04/10 06:11:01;;;;;;;15.07;11.70;;;;;;;;;;6281592;28;20197;-63
2023/04/10 06:14:02;;;;;;;17.03;12.00;;;;;;;;;;6259601;28;20204;-63
2023/04/10 06:17:03;;;;;;;15.63;11.77;;;;;;;;;;6276490;28;20280;-65
2023/04/10 06:20:04;;;;;;;15.40;11.47;;;;;;;;;;6299032;28;20212;-62
2023/04/10 06:23:05;;;;;;;16.70;11.80;;;;;;;;;;6293240;28;20190;-63
2023/04/10 06:26:06;;;;;;;18.60;12.73;;;;;;;;;;6287195;28;20281;-63
2023/04/10 06:29:07;;;;;;;18.17;12.73;;;;;;;;;;6292570;28;20216;-63
2023/04/10 06:32:08;;;;;;;18.43;13.77;;;;;;;;;;6249864;28;20189;-62
2023/04/10 06:35:09;;;;;;;18.40;12.87;;;;;;;;;;6273213;28;20260;-62
2023/04/10 06:38:11;;;;;;;19.57;14.03;;;;;;;;;;6276905;28;20200;-63
2023/04/10 06:41:12;;;;;;;19.90;13.40;;;;;;;;;;6263454;28;20197;-64
2023/04/10 06:44:13;;;;;;;20.33;13.80;;;;;;;;;;6290440;28;20196;-64
2023/04/10 06:47:15;;;;;;;20.37;13.53;;;;;;;;;;6259214;28;20212;-64
2023/04/10 06:50:16;;;;;;;25.30;15.83;;;;;;;;;;6280035;28;20182;-63
2023/04/10 06:53:17;;;;;;;23.37;15.17;;;;;;;;;;6276020;28;20200;-64
2023/04/10 06:56:19;;;;;;;19.97;12.53;;;;;;;;;;6247399;28;20208;-63
2023/04/10 06:59:20;;;;;;;20.50;12.67;;;;;;;;;;6275984;28;20198;-62
2023/04/10 07:02:21;;;;;;;21.20;14.03;;;;;;;;;;6258973;28;20198;-63
2023/04/10 07:05:22;;;;;;;23.90;15.13;;;;;;;;;;6257822;28;20231;-64
2023/04/10 07:08:24;;;;;;;26.87;18.00;;;;;;;;;;6273181;28;20192;-64
2023/04/10 07:11:25;;;;;;;27.57;17.90;;;;;;;;;;6246295;28;20187;-63
2023/04/10 07:14:26;;;;;;;25.20;16.57;;;;;;;;;;6254326;28;20197;-64
2023/04/10 07:17:27;;;;;;;25.53;16.93;;;;;;;;;;6274271;28;20190;-63
2023/04/10 07:20:28;;;;;;;25.23;16.60;;;;;;;;;;6258664;28;20251;-64
2023/04/10 07:23:29;;;;;;;24.33;16.17;;;;;;;;;;6255950;28;20225;-63
2023/04/10 07:26:30;;;;;;;23.57;14.97;;;;;;;;;;6291667;28;20209;-63
2023/04/10 07:29:31;;;;;;;18.03;15.10;;;;;;;;;;6292626;28;20198;-63
2023/04/10 07:32:33;;;;;;;19.47;14.23;;;;;;;;;;6253937;28;20186;-63
2023/04/10 07:35:35;;;;;;;17.43;12.60;;;;;;;;;;6291839;28;20273;-63
2023/04/10 07:38:37;;;;;;;17.53;12.97;;;;;;;;;;6251526;28;20201;-62
2023/04/10 07:41:39;;;;;;;17.67;13.47;;;;;;;;;;6275245;28;20212;-63
2023/04/10 07:44:40;;;;;;;15.27;12.57;;;;;;;;;;6258021;28;20347;-62
2023/04/10 07:47:41;;;;;;;18.63;13.60;;;;;;;;;;6269576;28;20190;-64
2023/04/10 07:50:42;;;;;;;15.57;12.47;;;;;;;;;;6285059;28;20185;-63
2023/04/10 07:53:43;;;;;;;17.37;12.33;;;;;;;;;;6291609;28;20224;-63
2023/04/10 07:56:44;;;;;;;18.87;12.97;;;;;;;;;;6291058;28;20193;-63
2023/04/10 07:59:45;;;;;;;15.90;11.93;;;;;;;;;;6287504;28;20201;-64
2023/04/10 08:02:46;;;;;;;15.43;12.33;;;;;;;;;;6275008;28;20201;-64
2023/04/10 08:05:47;;;;;;;15.10;12.37;;;;;;;;;;6257404;28;20262;-64
2023/04/10 08:08:48;;;;;;;14.50;11.23;;;;;;;;;;6258673;28;20204;-63
2023/04/10 08:11:49;;;;;;;12.60;10.07;;;;;;;;;;6257234;28;20194;-63
2023/04/10 08:14:50;;;;;;;13.67;10.27;;;;;;;;;;6250795;28;20196;-63
2023/04/10 08:17:52;;;;;;;11.63;10.23;;;;;;;;;;6246307;28;20205;-63
2023/04/10 08:20:53;;;;;;;10.53;8.80;;;;;;;;;;6257682;28;20277;-63
2023/04/10 08:23:55;;;;;;;11.00;9.10;;;;;;;;;;6257734;28;20193;-64
2023/04/10 08:26:56;;;;;;;9.47;7.20;;;;;;;;;;6265012;28;20507;-63
2023/04/10 08:29:57;;;;;;;5.83;5.23;;;;;;;;;;6257888;28;20189;-63
2023/04/10 08:32:58;;;;;;;7.37;6.30;;;;;;;;;;6251995;28;20198;-62
2023/04/10 08:35:59;;;;;;;6.53;5.63;;;;;;;;;;6257288;28;20238;-63
2023/04/10 08:39:00;;;;;;;7.03;5.97;;;;;;;;;;6290298;28;20194;-63
2023/04/10 08:42:01;;;;;;;6.40;5.80;;;;;;;;;;6289166;28;20205;-62
2023/04/10 08:45:03;;;;;;;8.07;5.77;;;;;;;;;;6266219;28;20206;-64
2023/04/10 08:48:05;;;;;;;6.03;5.43;;;;;;;;;;6274395;28;20200;-62
2023/04/10 08:51:07;;;;;;;6.73;5.17;;;;;;;;;;6255489;28;20193;-62
2023/04/10 08:54:18;;;;;;;5.40;4.87;;;;;;;;;;6262777;28;20205;-62
2023/04/10 08:57:21;;;;;;;5.83;5.23;;;;;;;;;;6273048;28;20186;-61
2023/04/10 09:00:22;;;;;;;6.13;5.50;;;;;;;;;;6290436;28;20182;-62
2023/04/10 09:03:23;;;;;;;5.77;5.10;;;;;;;;;;6247321;28;20193;-62
2023/04/10 09:06:24;;;;;;;5.60;5.10;;;;;;;;;;6269829;28;20227;-62
2023/04/10 09:09:27;;;;;;;6.37;5.77;;;;;;;;;;6254927;28;20200;-62
2023/04/10 09:12:28;;;;;;;6.20;5.60;;;;;;;;;;6265716;28;20259;-62
2023/04/10 09:15:29;;;;;;;5.27;4.77;;;;;;;;;;6262511;28;20228;-62
2023/04/10 09:18:44;;;;;;;6.80;6.07;;;;;;;;;;6260499;28;20196;-61
2023/04/10 09:21:49;;;;;;;7.03;6.23;;;;;;;;;;6273450;28;20190;-61
2023/04/10 09:24:50;;;;;;;5.93;5.40;;;;;;;;;;6287509;28;20229;-62
2023/04/10 09:27:59;;;;;;;6.47;5.33;;;;;;;;;;6251156;28;20254;-61
2023/04/10 09:31:00;;;;;;;5.47;4.97;;;;;;;;;;6268351;28;20194;-61
2023/04/10 09:34:11;;;;;;;6.57;5.87;;;;;;;;;;6287239;28;20209;-61
2023/04/10 09:37:12;;;;;;;5.77;5.17;;;;;;;;;;6270856;28;20186;-61
2023/04/10 09:40:23;;;;;;;6.13;5.53;;;;;;;;;;6268661;28;20189;-62
2023/04/10 09:43:25;;;;;;;6.87;6.17;;;;;;;;;;6268575;28;20190;-62
2023/04/10 09:46:27;;;;;;;5.40;4.57;;;;;;;;;;6289102;28;20271;-63
2023/04/10 09:49:28;;;;;;;6.43;4.90;;;;;;;;;;6255092;28;20201;-64
2023/04/10 09:52:37;;;;;;;5.73;5.07;;;;;;;;;;6255134;28;20189;-63
2023/04/10 09:55:38;;;;;;;6.07;5.47;;;;;;;;;;6281995;28;20206;-61
2023/04/10 09:58:39;;;;;;;5.77;5.23;;;;;;;;;;6288555;28;20197;-61
2023/04/10 10:01:41;;;;;;;6.43;5.47;;;;;;;;;;6285811;28;20193;-61
2023/04/10 10:04:43;;;;;;;6.07;5.47;;;;;;;;;;6288077;28;20245;-61
2023/04/10 10:07:45;;;;;;;6.63;5.73;;;;;;;;;;6272378;28;20271;-62
2023/04/10 10:10:47;;;;;;;6.10;5.50;;;;;;;;;;6253837;28;20355;-61
2023/04/10 10:13:56;;;;;;;6.10;5.50;;;;;;;;;;6286907;28;20201;-61
2023/04/10 10:16:58;;;;;;;6.03;5.47;;;;;;;;;;6275010;28;20198;-60
2023/04/10 10:20:02;;;;;;;6.07;5.37;;;;;;;;;;6284346;28;20201;-60
2023/04/10 10:23:03;;;;;;;5.20;4.70;;;;;;;;;;6278381;28;20186;-60
2023/04/10 10:26:05;;;;;;;5.33;4.83;;;;;;;;;;6254096;28;20225;-60
2023/04/10 10:29:09;;;;;;;6.50;5.80;;;;;;;;;;6265424;28;20190;-60
2023/04/10 10:32:11;;;;;;;5.40;4.90;;;;;;;;;;6277048;28;20191;-60
2023/04/10 10:35:12;;;;;;;5.60;5.10;;;;;;;;;;6254138;28;20241;-60
2023/04/10 10:38:13;;;;;;;6.57;5.43;;;;;;;;;;6256305;28;20280;-60
2023/04/10 10:41:25;;;;;;;5.00;4.53;;;;;;;;;;6290842;28;20204;-60
2023/04/10 10:44:34;;;;;;;5.57;5.07;;;;;;;;;;6293205;28;20190;-60
2023/04/10 10:47:39;;;;;;;5.23;4.83;;;;;;;;;;6292992;28;20215;-61
2023/04/10 10:50:55;;;;;;;5.67;4.93;;;;;;;;;;6264242;28;20258;-61
2023/04/10 10:53:56;;;;;;;5.63;5.13;;;;;;;;;;6255759;28;20216;-61
2023/04/10 10:56:57;;;;;;;5.47;4.97;;;;;;;;;;6249657;28;20224;-61
2023/04/10 10:59:58;;;;;;;5.23;4.73;;;;;;;;;;6292586;28;20204;-61
2023/04/10 11:03:11;;;;;;;5.33;4.83;;;;;;;;;;6255143;28;20202;-61
2023/04/10 11:06:15;;;;;;;5.57;5.07;;;;;;;;;;6252292;28;20202;-60
2023/04/10 11:09:46;;;;;;;5.40;4.90;;;;;;;;;;6281335;28;20321;-61
2023/04/10 11:13:06;;;;;;;7.83;4.77;;;;;;;;;;6250466;28;20197;-61
2023/04/10 11:16:11;;;;;;;5.83;5.13;;;;;;;;;;6281351;28;20191;-61
2023/04/10 11:19:13;;;;;;;6.13;5.53;;;;;;;;;;6286296;28;20179;-61
2023/04/10 11:22:14;;;;;;;6.07;5.47;;;;;;;;;;6259897;28;20239;-61
2023/04/10 11:25:15;;;;;;;5.80;5.20;;;;;;;;;;6258005;28;20223;-61
2023/04/10 11:28:31;;;;;;;6.30;5.40;;;;;;;;;;6258893;28;20196;-61
2023/04/10 11:31:33;;;;;;;6.10;5.33;;;;;;;;;;6271224;28;20204;-61
2023/04/10 11:34:43;;;;;;;5.93;5.43;;;;;;;;;;6275203;28;20266;-61
2023/04/10 11:37:44;;;;;;;6.50;5.90;;;;;;;;;;6291760;28;20195;-61
2023/04/10 11:41:05;;;;;;;5.80;5.20;;;;;;;;;;6255345;28;20217;-61
2023/04/10 11:44:10;;;;;;;5.90;5.40;;;;;;;;;;6279600;28;20196;-61
2023/04/10 11:47:15;;;;;;;6.00;5.20;;;;;;;;;;6290104;28;20192;-61
2023/04/10 11:50:17;;;;;;;6.20;5.60;;;;;;;;;;6257181;28;20198;-61
2023/04/10 11:53:20;;;;;;;6.13;5.53;;;;;;;;;;6289274;28;20203;-61
2023/04/10 11:56:21;;;;;;;7.30;5.60;;;;;;;;;;6258502;28;20223;-61
2023/04/10 11:59:22;;;;;;;6.10;5.50;;;;;;;;;;6253153;28;20268;-61
2023/04/10 12:02:23;;;;;;;6.20;5.70;;;;;;;;;;6286992;28;20194;-61
2023/04/10 12:05:24;;;;;;;6.37;5.77;;;;;;;;;;6258104;28;20308;-60
2023/04/10 12:08:32;;;;;;;6.30;5.40;;;;;;;;;;6249348;28;20189;-61
2023/04/10 12:11:33;;;;;;;7.30;5.67;;;;;;;;;;6289991;28;20189;-61
2023/04/10 12:14:37;;;;;;;7.33;6.13;;;;;;;;;;6268985;28;20232;-61
2023/04/10 12:17:38;;;;;;;7.53;6.83;;;;;;;;;;6260530;28;20241;-61
2023/04/10 12:20:39;;;;;;;7.50;6.80;;;;;;;;;;6264463;28;20194;-60
2023/04/10 12:23:40;;;;;;;8.23;6.83;;;;;;;;;;6255801;28;20244;-60
2023/04/10 12:26:47;;;;;;;7.23;6.53;;;;;;;;;;6257557;28;20214;-60
2023/04/10 12:29:49;;;;;;;7.17;6.47;;;;;;;;;;6266380;28;20195;-61
2023/04/10 12:32:55;;;;;;;5.93;5.43;;;;;;;;;;6283587;28;20222;-61
2023/04/10 12:35:56;;;;;;;7.60;6.20;;;;;;;;;;6292094;28;20238;-61
2023/04/10 12:38:58;;;;;;;7.17;6.50;;;;;;;;;;6270845;28;20324;-61
2023/04/10 12:42:12;;;;;;;6.43;5.93;;;;;;;;;;6271500;28;20193;-61
2023/04/10 12:45:14;;;;;;;6.73;6.13;;;17.20;29.20;;;;;;6269763;28;20222;-61
2023/04/10 12:48:22;;;;;;;6.20;5.70;;;;;;;;;;6268700;28;20194;-61
2023/04/10 12:51:47;;;;;;;6.57;6.00;;;25.00;30.70;;;;;;6272340;28;20197;-60
2023/04/10 12:54:49;;;;;;;6.23;5.73;;;;;;;;;;6287288;28;20182;-61
2023/04/10 12:57:50;;;;;;;6.50;6.00;;;28.50;24.40;;;;;;6255032;28;20189;-60
2023/04/10 13:00:51;;;;;;;6.47;5.97;;;29.10;24.70;;;;;;6254736;28;20198;-60
2023/04/10 13:03:52;;;;;;;6.80;6.30;;;30.30;24.20;;;;;;6263246;28;20200;-60
2023/04/10 13:06:52;;;;;;;6.63;6.13;;;29.90;22.90;;;;;;6239240;28;20289;-61
2023/04/10 13:09:53;;;;;;;6.53;6.03;;;30.70;23.70;;;;;;6272517;28;20249;-61
2023/04/10 13:12:54;;;;;;;5.80;5.30;;;31.30;23.90;;;;;;6227141;28;20258;-61
2023/04/10 13:15:55;;;;;;;6.05;5.65;;;32.60;23.00;;;;;;6270196;28;20285;-61
2023/04/10 13:18:55;;;;;;;5.78;5.40;;;33.20;22.50;;;;;;6231876;28;20194;-60
2023/04/10 13:21:58;;;;;;;5.20;4.80;;;33.60;23.30;;;;;;6272272;28;20193;-61
2023/04/10 13:24:59;;;;;;;5.45;5.05;;;34.80;20.50;;;;;;6272402;28;20217;-61
2023/04/10 13:28:00;;;;;;;6.20;5.72;;;32.60;21.30;;;;;;6255056;28;20201;-61
2023/04/10 13:31:01;;;;;;;5.47;5.00;;;32.00;21.90;;;;;;6284774;28;20909;-60
2023/04/10 13:34:01;;;;;;;5.30;4.90;;;32.60;23.20;;;;;;6232557;28;20190;-61
2023/04/10 13:37:02;;;;;;;5.60;5.20;;;34.20;20.90;;;;;;6273888;28;20198;-60
2023/04/10 13:40:04;;;;;;;4.95;4.63;;;35.80;19.80;;;;;;6251233;28;20195;-60
2023/04/10 13:43:05;;;;;;;4.47;4.18;;;36.30;19.20;;;;;;6271284;28;20197;-60
2023/04/10 13:46:06;;;;;;;5.22;4.93;;;35.50;18.70;;;;;;6279521;28;20215;-60
2023/04/10 13:49:06;;;;;;;4.70;4.40;;;35.50;19.60;;;;;;6272250;28;20181;-60
2023/04/10 13:52:07;;;;;;;5.20;4.90;;;36.30;19.00;;;;;;6285513;28;20197;-60
2023/04/10 13:55:08;;;;;;;5.20;4.80;;;35.20;19.00;;;;;;6259540;28;20213;-61
2023/04/10 13:58:12;;;;;;;4.90;4.60;;;33.10;21.60;;;;;;6255052;28;20202;-61
2023/04/10 14:01:12;;;;;;;5.20;4.90;;;34.40;21.20;;;;;;6258415;28;20197;-61
2023/04/10 14:04:13;;;;;;;5.18;4.82;;;35.20;20.30;;;;;;6233710;28;20275;-62
2023/04/10 14:07:14;;;;;;;5.70;5.30;;;35.20;20.10;;;;;;6282962;28;20210;-62
2023/04/10 14:10:14;;;;;;;5.22;4.93;;;34.60;20.80;;;;;;6272829;28;20189;-62
2023/04/10 14:13:16;;;;;;;5.80;5.40;;;33.00;21.60;;;;;;6273857;28;20197;-60
2023/04/10 14:16:16;;;;;;;5.93;5.47;;;31.70;23.10;;;;;;6271858;28;20280;-60
2023/04/10 14:19:17;;;;;;;6.00;5.50;;;30.80;23.20;;;;;;6241318;28;20211;-61
2023/04/10 14:22:18;;;;;;;5.45;5.05;;;31.60;23.50;;;;;;6279689;28;20190;-60
2023/04/10 14:25:19;;;;;;;5.75;5.35;;;32.40;23.60;;;;;;6258454;28;20951;-60
2023/04/10 14:28:20;;;;;;;5.85;5.45;;;32.70;21.80;;;;;;6260464;28;20253;-60
2023/04/10 14:31:20;;;;;;;6.18;5.68;;;32.90;21.90;;;;;;6241245;28;20189;-60
2023/04/10 14:34:21;;;;;;;5.47;5.07;;;32.20;20.80;;;;;;6277835;28;20463;-60
2023/04/10 14:37:22;;;;;;;6.03;5.47;;;32.20;21.80;;;;;;6243278;28;20252;-60
2023/04/10 14:40:24;;;;;;;5.93;5.43;;;31.20;22.30;;;;;;6257027;28;20177;-60
2023/04/10 14:43:24;;;;;;;5.93;5.43;;;31.10;22.90;;;;;;6274671;28;20212;-60
2023/04/10 14:46:25;;;;;;;6.43;5.93;;;30.90;22.90;;;;;;6241723;28;20221;-60
2023/04/10 14:49:26;;;;;;;6.00;5.50;;;30.40;22.70;;;;;;6255679;28;20191;-60
2023/04/10 14:52:26;;;;;;;6.03;5.63;;;29.10;24.30;;;;;;6261028;28;20189;-60
2023/04/10 14:55:30;;;;;;;5.73;5.23;;;29.20;21.40;;;;;;6242061;28;20189;-60
2023/04/10 14:58:31;;;;;;;6.00;5.60;;;29.80;23.00;;;;;;6257847;28;20190;-60
2023/04/10 15:01:31;;;;;;;5.97;5.47;;;30.50;21.20;;;;;;6276002;28;20239;-60
2023/04/10 15:04:32;;;;;;;5.63;5.23;;;29.70;22.00;;;;;;6274708;28;20327;-60
2023/04/10 15:07:33;;;;;;;6.30;5.80;;;29.60;22.50;;;;;;6247060;28;20193;-60
2023/04/10 15:10:34;;;;;;;6.70;6.20;;;30.20;21.20;;;;;;6239041;28;20191;-60
2023/04/10 15:13:36;;;;;;;6.03;5.63;;;30.80;21.10;;;;;;6254128;28;20243;-60
2023/04/10 15:16:37;;;;;;;5.73;5.03;;;30.80;21.30;;;;;;6246481;28;20194;-60
2023/04/10 15:19:37;;;;;;;5.90;5.40;;;31.10;20.90;;;;;;6257802;28;20259;-60
2023/04/10 15:22:41;;;;;;;5.83;5.33;;;31.00;22.30;;;;;;6273844;28;20202;-61
2023/04/10 15:25:42;;;;;;;5.80;5.27;;;31.60;20.90;;;;;;6258470;28;20205;-61
2023/04/10 15:28:42;;;;;;;5.60;5.20;;;31.50;21.20;;;;;;6242276;28;20197;-61
2023/04/10 15:31:43;;;;;;;5.23;4.83;;;30.80;20.70;;;;;;6242693;28;20194;-60
2023/04/10 15:34:44;;;;;;;5.57;5.17;;;28.30;22.10;;;;;;6265774;28;20234;-61
2023/04/10 15:37:44;;;;;;;5.93;5.43;;;27.00;22.70;;;;;;6274566;28;20205;-61
2023/04/10 15:40:45;;;;;;;5.87;5.27;;;25.80;25.00;;;;;;6253525;28;20198;-61
2023/04/10 15:43:46;;;;;;;6.17;5.67;;;24.70;26.00;;;;;;6258761;28;20189;-61
2023/04/10 15:46:46;;;;;;;6.53;6.03;;;23.90;26.80;;;;;;6265479;28;20291;-61
2023/04/10 15:49:47;;;;;;;5.80;5.30;;;22.80;27.20;;;;;;6236906;28;20185;-61
2023/04/10 15:52:48;;;;;;;7.40;6.60;;;21.90;28.30;;;;;;6250852;28;20194;-61
2023/04/10 15:55:48;;;;;;;6.63;6.10;;;21.10;29.50;;;;;;6242185;28;20191;-61
2023/04/10 15:58:49;;;;;;;6.67;6.07;;;20.50;31.10;;;;;;6241119;28;20193;-61
2023/04/10 16:01:50;;;;;;;6.43;5.93;;;20.30;31.20;;;;;;6236105;28;20198;-61
2023/04/10 16:04:50;;;;;;;6.27;5.73;;;19.90;31.30;;;;;;6274373;28;20209;-61
2023/04/10 16:07:51;;;;;;;6.00;5.50;;;19.70;31.00;;;;;;6258285;28;20190;-61
2023/04/10 16:10:52;;;;;;;6.27;5.67;;;19.30;31.70;;;;;;6257353;28;20193;-61
2023/04/10 16:13:53;;;;;;;6.70;6.10;;;18.80;32.10;;;;;;6258637;28;20189;-61
2023/04/10 16:16:53;;;;;;;7.20;6.50;;;18.20;31.30;;;;;;6266667;28;20192;-62
2023/04/10 16:19:54;;;;;;;6.37;5.77;;;17.50;32.80;;;;;;6258955;28;20276;-62
2023/04/10 16:22:56;;;;;;;6.27;5.77;;;17.10;32.30;;;;;;6272904;28;20197;-63
2023/04/10 16:25:57;;;;;;;6.10;5.50;;;16.90;34.70;;;;;;6265285;28;20207;-62
2023/04/10 16:28:57;;;;;;;6.27;5.67;;;17.00;35.70;;;;;;6270377;28;20188;-62
2023/04/10 16:31:58;;;;;;;5.97;5.47;;;17.10;35.00;;;;;;6257582;28;20190;-63
2023/04/10 16:34:59;;;;;;;6.87;5.90;;;17.00;34.40;;;;;;6273280;28;20242;-62
2023/04/10 16:37:59;;;;;;;5.83;5.33;;;17.00;34.40;;;;;;6256674;28;20198;-62
2023/04/10 16:41:02;;;;;;;5.97;5.47;;;16.90;35.20;;;;;;6271966;28;20202;-63
2023/04/10 16:44:02;;;;;;;6.23;5.63;;;16.70;34.10;;;;;;6233648;28;20201;-62
2023/04/10 16:47:03;;;;;;;5.57;5.07;;;16.40;34.60;;;;;;6269848;28;20214;-62
2023/04/10 16:50:04;;;;;;;6.13;5.53;;;16.40;36.20;;;;;;6239480;28;20186;-63
2023/04/10 16:53:05;;;;;;;5.73;5.13;;;16.30;36.60;;;;;;6290106;28;20182;-62
2023/04/10 16:56:06;;;;;;;6.83;6.23;;;16.20;37.60;;;;;;6254081;28;20243;-63
2023/04/10 16:59:07;;;;;;;6.57;5.90;;;16.10;37.60;;;;;;6272838;28;20262;-62
2023/04/10 17:02:08;;;;;;;6.50;5.90;;;16.00;36.60;;;;;;6273619;28;20191;-62
2023/04/10 17:05:09;;;;;;;6.43;5.83;;;15.70;36.20;;;;;;6269705;28;20218;-63
2023/04/10 17:08:09;;;;;;;7.50;6.10;;;15.60;37.50;;;;;;6273134;28;20194;-63
2023/04/10 17:11:13;;;;;;;6.73;6.03;;;15.50;37.70;;;;;;6251437;28;20228;-62
2023/04/10 17:14:14;;;;;;;10.87;6.33;;;15.30;38.60;;;;;;6285141;28;20193;-62
2023/04/10 17:17:15;;;;;;;6.37;5.60;;;15.20;38.70;;;;;;6271129;28;20282;-63
2023/04/10 17:20:16;;;;;;;7.40;6.70;;;15.00;38.70;;;;;;6234344;28;20326;-64